createdAt,value
2019-03-23T00:01:13.449Z,69.53
2019-03-23T00:03:41.760Z,71.13
2019-03-23T00:06:09.970Z,71.10
2019-03-23T00:08:38.194Z,73.57
2019-03-23T00:11:06.400Z,71.87
2019-03-23T00:13:34.633Z,72.40
2019-03-23T00:16:02.844Z,71.30
2019-03-23T00:18:31.069Z,64.50
2019-03-23T00:20:59.280Z,71.20
2019-03-23T00:23:27.508Z,74.53
2019-03-23T00:25:55.718Z,77.40
2019-03-23T00:28:23.960Z,71.80
2019-03-23T00:30:52.170Z,76.63
2019-03-23T00:33:20.383Z,74.23
2019-03-23T00:35:48.594Z,79.07
2019-03-23T00:38:16.819Z,73.67
2019-03-23T00:40:45.032Z,77.50
2019-03-23T00:43:13.262Z,81.00
2019-03-23T00:45:41.482Z,77.00
2019-03-23T00:48:09.688Z,80.20
2019-03-23T00:50:37.912Z,87.13
2019-03-23T00:53:06.130Z,86.50
2019-03-23T00:55:34.360Z,84.73
2019-03-23T00:58:03.031Z,83.93
2019-03-23T01:00:31.257Z,81.33
2019-03-23T01:02:59.472Z,79.03
2019-03-23T01:05:28.161Z,80.90
2019-03-23T01:07:56.376Z,85.40
2019-03-23T01:10:24.607Z,83.53
2019-03-23T01:12:53.708Z,81.43
2019-03-23T01:15:21.936Z,80.50
2019-03-23T01:17:50.146Z,69.47
2019-03-23T01:20:18.371Z,69.27
2019-03-23T01:22:46.580Z,68.57
2019-03-23T01:25:14.795Z,66.23
2019-03-23T01:27:43.027Z,72.10
2019-03-23T01:30:12.978Z,69.17
2019-03-23T01:32:41.203Z,70.63
2019-03-23T01:35:09.414Z,72.47
2019-03-23T01:37:37.645Z,72.40
2019-03-23T01:40:06.894Z,65.73
2019-03-23T01:42:35.119Z,73.73
2019-03-23T01:45:04.098Z,64.33
2019-03-23T01:47:32.319Z,75.80
2019-03-23T01:50:00.529Z,70.83
2019-03-23T01:52:28.749Z,70.57
2019-03-23T01:54:56.970Z,66.93
2019-03-23T01:57:25.198Z,65.50
2019-03-23T01:59:53.407Z,66.50
2019-03-23T02:02:21.638Z,64.43
2019-03-23T02:04:49.854Z,61.70
2019-03-23T02:07:18.084Z,62.33
2019-03-23T02:09:46.298Z,63.07
2019-03-23T02:12:14.522Z,66.80
2019-03-23T02:14:42.731Z,64.80
2019-03-23T02:17:10.954Z,60.90
2019-03-23T02:19:39.166Z,63.03
2019-03-23T02:22:07.392Z,63.57
2019-03-23T02:24:35.600Z,63.83
2019-03-23T02:27:03.828Z,62.90
2019-03-23T02:29:32.050Z,59.47
2019-03-23T02:32:00.273Z,59.13
2019-03-23T02:34:28.488Z,64.93
2019-03-23T02:36:56.706Z,63.60
2019-03-23T02:39:24.940Z,61.13
2019-03-23T02:41:53.144Z,59.77
2019-03-23T02:44:21.608Z,57.13
2019-03-23T02:46:49.837Z,57.70
2019-03-23T02:49:18.052Z,57.20
2019-03-23T02:51:46.283Z,59.20
2019-03-23T02:54:14.489Z,56.90
2019-03-23T02:56:42.719Z,58.23
2019-03-23T02:59:10.935Z,56.83
2019-03-23T03:01:39.141Z,58.63
2019-03-23T03:04:07.367Z,59.70
2019-03-23T03:06:35.583Z,56.90
2019-03-23T03:09:05.172Z,57.83
2019-03-23T03:11:33.387Z,54.53
2019-03-23T03:14:01.608Z,60.20
2019-03-23T03:16:29.827Z,56.63
2019-03-23T03:18:58.077Z,61.13
2019-03-23T03:21:26.343Z,58.50
2019-03-23T03:23:54.511Z,61.47
2019-03-23T03:26:22.739Z,61.87
2019-03-23T03:28:51.418Z,58.63
2019-03-23T03:31:19.659Z,61.80
2019-03-23T03:33:48.116Z,63.60
2019-03-23T03:36:16.345Z,65.13
2019-03-23T03:38:44.641Z,62.53
2019-03-23T03:41:12.873Z,63.63
2019-03-23T03:43:41.312Z,59.23
2019-03-23T03:46:09.522Z,60.73
2019-03-23T03:48:37.831Z,64.17
2019-03-23T03:51:06.056Z,58.67
2019-03-23T03:53:34.289Z,59.57
2019-03-23T03:56:02.543Z,62.30
2019-03-23T03:58:30.719Z,62.83
2019-03-23T04:00:58.942Z,58.03
2019-03-23T04:03:27.159Z,55.57
2019-03-23T04:05:55.401Z,58.93
2019-03-23T04:08:23.624Z,59.20
2019-03-23T04:10:51.825Z,57.70
2019-03-23T04:13:20.048Z,55.67
2019-03-23T04:15:49.406Z,58.37
2019-03-23T04:18:17.655Z,56.73
2019-03-23T04:20:45.867Z,58.47
2019-03-23T04:23:14.088Z,58.57
2019-03-23T04:25:42.771Z,61.00
2019-03-23T04:28:10.985Z,58.30
2019-03-23T04:30:39.215Z,58.53
2019-03-23T04:33:07.435Z,59.17
2019-03-23T04:35:35.645Z,57.90
2019-03-23T04:38:03.878Z,58.00
2019-03-23T04:40:32.079Z,58.77
2019-03-23T04:43:00.313Z,55.87
2019-03-23T04:45:29.843Z,58.23
2019-03-23T04:47:58.049Z,57.03
2019-03-23T04:50:26.279Z,58.10
2019-03-23T04:52:54.493Z,58.43
2019-03-23T04:55:22.730Z,56.60
2019-03-23T04:57:50.950Z,57.67
2019-03-23T05:00:19.808Z,59.87
2019-03-23T05:02:48.033Z,57.97
2019-03-23T05:05:16.246Z,58.37
2019-03-23T05:07:44.469Z,57.23
2019-03-23T05:10:12.691Z,59.67
2019-03-23T05:12:40.918Z,57.60
2019-03-23T05:15:09.129Z,56.97
2019-03-23T05:17:37.360Z,58.23
2019-03-23T05:20:07.808Z,57.57
2019-03-23T05:22:36.024Z,56.17
2019-03-23T05:25:05.177Z,53.97
2019-03-23T05:27:33.395Z,54.23
2019-03-23T05:30:01.697Z,53.50
2019-03-23T05:32:29.907Z,52.07
2019-03-23T05:34:58.142Z,53.30
2019-03-23T05:37:26.342Z,54.53
2019-03-23T05:39:54.562Z,52.73
2019-03-23T05:42:22.772Z,54.43
2019-03-23T05:44:50.997Z,53.03
2019-03-23T05:47:19.211Z,50.57
2019-03-23T05:49:47.921Z,50.17
2019-03-23T05:52:16.130Z,53.27
2019-03-23T05:54:44.361Z,51.43
2019-03-23T05:57:12.575Z,50.47
2019-03-23T05:59:40.787Z,55.73
2019-03-23T06:02:09.008Z,54.23
2019-03-23T06:04:37.219Z,50.67
2019-03-23T06:07:05.454Z,56.33
2019-03-23T06:09:33.660Z,56.73
2019-03-23T06:12:01.874Z,54.40
2019-03-23T06:14:30.099Z,57.50
2019-03-23T06:16:58.319Z,56.43
2019-03-23T06:19:26.556Z,55.57
2019-03-23T06:21:54.766Z,57.60
2019-03-23T06:24:22.978Z,57.30
2019-03-23T06:26:51.208Z,57.93
2019-03-23T06:29:19.420Z,55.30
2019-03-23T06:31:47.638Z,54.50
2019-03-23T06:34:15.855Z,55.00
2019-03-23T06:36:44.082Z,57.27
2019-03-23T06:39:12.293Z,56.37
2019-03-23T06:41:40.527Z,57.17
2019-03-23T06:44:08.738Z,55.33
2019-03-23T06:46:36.947Z,58.37
2019-03-23T06:49:05.441Z,55.30
2019-03-23T06:51:33.652Z,59.90
2019-03-23T06:54:01.863Z,60.33
2019-03-23T06:56:30.071Z,58.97
2019-03-23T06:58:58.756Z,60.33
2019-03-23T07:01:26.969Z,58.40
2019-03-23T07:03:55.198Z,57.77
2019-03-23T07:06:23.405Z,58.67
2019-03-23T07:08:51.624Z,58.47
2019-03-23T07:11:19.835Z,57.20
2019-03-23T07:13:49.253Z,53.77
2019-03-23T07:16:17.456Z,58.93
2019-03-23T07:18:45.676Z,57.47
2019-03-23T07:21:13.890Z,57.50
2019-03-23T07:23:42.113Z,51.30
2019-03-23T07:26:10.341Z,55.30
2019-03-23T07:28:38.560Z,56.87
2019-03-23T07:31:06.769Z,58.27
2019-03-23T07:33:34.989Z,56.60
2019-03-23T07:36:03.200Z,58.57
2019-03-23T07:38:31.424Z,55.00
2019-03-23T07:40:59.635Z,59.10
2019-03-23T07:43:29.331Z,56.93
2019-03-23T07:45:57.540Z,57.03
2019-03-23T07:48:25.777Z,57.63
2019-03-23T07:50:53.985Z,56.83
2019-03-23T07:53:22.196Z,51.83
2019-03-23T07:55:50.414Z,56.73
2019-03-23T07:58:18.619Z,53.53
2019-03-23T08:00:46.843Z,55.73
2019-03-23T08:03:15.303Z,56.10
2019-03-23T08:05:43.523Z,55.13
2019-03-23T08:08:11.730Z,55.30
2019-03-23T08:10:39.952Z,54.40
2019-03-23T08:13:08.198Z,53.27
2019-03-23T08:15:36.392Z,53.00
2019-03-23T08:18:04.603Z,54.63
2019-03-23T08:20:32.816Z,54.20
2019-03-23T08:23:01.044Z,53.40
2019-03-23T08:25:29.261Z,53.07
2019-03-23T08:27:57.486Z,52.93
2019-03-23T08:30:25.698Z,53.07
2019-03-23T08:32:53.929Z,51.73
2019-03-23T08:35:22.147Z,55.43
2019-03-23T08:37:50.355Z,56.07
2019-03-23T08:40:18.570Z,54.57
2019-03-23T08:42:46.783Z,53.87
2019-03-23T08:45:15.011Z,55.57
2019-03-23T08:47:43.220Z,55.40
2019-03-23T08:50:12.310Z,56.13
2019-03-23T08:52:40.515Z,56.03
2019-03-23T08:55:08.739Z,52.50
2019-03-23T08:57:36.952Z,50.60
2019-03-23T09:00:08.545Z,53.07
2019-03-23T09:02:36.752Z,50.33
2019-03-23T09:05:06.604Z,51.33
2019-03-23T09:07:34.819Z,48.63
2019-03-23T09:10:04.278Z,50.87
2019-03-23T09:12:32.484Z,51.67
2019-03-23T09:15:00.699Z,45.93
2019-03-23T09:17:28.916Z,51.63
2019-03-23T09:19:57.138Z,49.23
2019-03-23T09:22:25.350Z,47.53
2019-03-23T09:24:56.906Z,44.90
2019-03-23T09:27:23.504Z,49.10
2019-03-23T09:29:51.728Z,44.50
2019-03-23T09:32:19.943Z,43.40
2019-03-23T09:34:48.163Z,44.67
2019-03-23T09:37:16.377Z,44.97
2019-03-23T09:39:44.595Z,45.70
2019-03-23T09:42:12.804Z,45.60
2019-03-23T09:44:41.026Z,41.37
2019-03-23T09:47:09.237Z,44.43
2019-03-23T09:49:37.458Z,43.73
2019-03-23T09:52:05.684Z,38.97
2019-03-23T09:54:33.916Z,42.90
2019-03-23T09:57:02.133Z,37.33
2019-03-23T09:59:30.339Z,40.07
2019-03-23T10:01:58.569Z,39.87
2019-03-23T10:04:28.416Z,40.93
2019-03-23T10:06:56.630Z,40.60
2019-03-23T10:09:24.840Z,39.57
2019-03-23T10:11:53.076Z,37.07
2019-03-23T10:14:21.280Z,34.67
2019-03-23T10:16:49.496Z,36.07
2019-03-23T10:19:17.716Z,34.77
2019-03-23T10:21:45.931Z,33.33
2019-03-23T10:24:14.189Z,33.93
2019-03-23T10:26:42.398Z,31.63
2019-03-23T10:29:11.095Z,33.27
2019-03-23T10:31:39.322Z,33.47
2019-03-23T10:34:07.605Z,31.27
2019-03-23T10:36:35.833Z,30.20
2019-03-23T10:39:04.990Z,31.43
2019-03-23T10:41:33.209Z,29.57
2019-03-23T10:44:01.418Z,30.10
2019-03-23T10:46:30.702Z,30.40
2019-03-23T10:48:58.912Z,28.80
2019-03-23T10:51:27.123Z,25.70
2019-03-23T10:53:55.342Z,27.10
2019-03-23T10:56:23.557Z,27.33
2019-03-23T10:58:51.795Z,25.13
2019-03-23T11:01:19.989Z,26.13
2019-03-23T11:03:48.207Z,25.67
2019-03-23T11:06:16.429Z,24.77
2019-03-23T11:08:44.637Z,25.07
2019-03-23T11:11:12.868Z,23.17
2019-03-23T11:13:41.076Z,22.23
2019-03-23T11:16:09.344Z,24.47
2019-03-23T11:18:37.877Z,25.23
2019-03-23T11:21:06.120Z,23.83
2019-03-23T11:23:34.332Z,22.10
2019-03-23T11:26:02.555Z,20.67
2019-03-23T11:28:30.766Z,21.30
2019-03-23T11:30:59.126Z,20.83
2019-03-23T11:33:27.337Z,18.50
2019-03-23T11:35:57.951Z,16.33
2019-03-23T11:38:25.501Z,17.33
2019-03-23T11:40:55.263Z,18.90
2019-03-23T11:43:23.625Z,16.57
2019-03-23T11:45:51.854Z,14.53
2019-03-23T11:48:20.066Z,14.50
2019-03-23T11:50:48.295Z,12.40
2019-03-23T11:53:16.507Z,12.27
2019-03-23T11:55:44.726Z,12.50
2019-03-23T11:58:13.014Z,9.90
2019-03-23T12:00:41.224Z,8.80
2019-03-23T12:03:09.436Z,8.47
2019-03-23T12:05:37.645Z,7.03
2019-03-23T12:08:05.875Z,6.87
2019-03-23T12:10:34.088Z,6.03
2019-03-23T12:13:02.302Z,6.10
2019-03-23T12:15:30.511Z,5.30
2019-03-23T12:17:58.721Z,4.33
2019-03-23T12:20:26.952Z,4.80
2019-03-23T12:22:55.425Z,5.00
2019-03-23T12:25:23.741Z,3.80
2019-03-23T12:27:51.956Z,4.90
2019-03-23T12:30:20.354Z,4.47
2019-03-23T12:32:48.579Z,3.67
2019-03-23T12:35:16.810Z,3.57
2019-03-23T12:37:45.310Z,3.27
2019-03-23T12:40:13.768Z,3.23
2019-03-23T12:42:41.992Z,3.37
2019-03-23T12:45:10.642Z,3.53
2019-03-23T12:47:38.868Z,3.40
2019-03-23T12:50:10.791Z,3.43
2019-03-23T12:52:39.000Z,2.97
2019-03-23T12:55:08.061Z,3.10
2019-03-23T12:57:36.352Z,3.87
2019-03-23T13:00:15.322Z,3.63
2019-03-23T13:02:43.526Z,3.63
2019-03-23T13:05:11.729Z,2.93
2019-03-23T13:07:40.519Z,3.83
2019-03-23T13:10:11.731Z,3.80
2019-03-23T13:12:41.582Z,4.30
2019-03-23T13:15:14.715Z,4.23
2019-03-23T13:17:42.942Z,3.80
2019-03-23T13:20:11.538Z,4.57
2019-03-23T13:22:39.712Z,4.07
2019-03-23T13:25:09.548Z,3.80
2019-03-23T13:27:37.837Z,4.47
2019-03-23T13:30:08.948Z,3.80
2019-03-23T13:32:37.163Z,3.53
2019-03-23T13:35:05.391Z,3.17
2019-03-23T13:37:33.601Z,3.60
2019-03-23T13:40:01.808Z,2.90
2019-03-23T13:42:30.027Z,2.77
2019-03-23T13:44:58.227Z,3.87
2019-03-23T13:47:26.450Z,3.23
2019-03-23T13:49:54.658Z,3.00
2019-03-23T13:52:23.350Z,2.60
2019-03-23T13:54:51.558Z,2.40
2019-03-23T13:57:19.768Z,3.00
2019-03-23T13:59:47.995Z,2.53
2019-03-23T14:02:16.203Z,2.37
2019-03-23T14:04:44.424Z,2.50
2019-03-23T14:07:12.629Z,2.53
2019-03-23T14:09:40.848Z,2.33
2019-03-23T14:12:09.055Z,2.70
2019-03-23T14:14:37.524Z,2.83
2019-03-23T14:17:05.737Z,2.43
2019-03-23T14:19:33.960Z,2.43
2019-03-23T14:22:02.158Z,2.43
2019-03-23T14:24:30.379Z,3.33
2019-03-23T14:26:58.588Z,3.07
2019-03-23T14:29:26.810Z,3.23
2019-03-23T14:31:55.012Z,2.60
2019-03-23T14:34:23.232Z,2.00
2019-03-23T14:36:51.434Z,3.70
2019-03-23T14:39:19.656Z,2.37
2019-03-23T14:41:47.873Z,2.03
2019-03-23T14:44:16.096Z,1.90
2019-03-23T14:46:44.310Z,1.93
2019-03-23T14:49:12.515Z,1.50
2019-03-23T14:51:40.733Z,1.80
2019-03-23T14:54:08.946Z,2.03
2019-03-23T14:56:37.165Z,2.27
2019-03-23T14:59:05.457Z,4.53
2019-03-23T15:01:33.692Z,2.63
2019-03-23T15:04:01.901Z,2.63
2019-03-23T15:06:30.112Z,2.10
2019-03-23T15:08:58.334Z,2.40
2019-03-23T15:11:26.538Z,2.03
2019-03-23T15:13:54.758Z,2.27
2019-03-23T15:16:22.967Z,3.23
2019-03-23T15:18:51.200Z,3.07
2019-03-23T15:21:19.409Z,2.80
2019-03-23T15:23:47.614Z,3.57
2019-03-23T15:26:16.572Z,2.87
2019-03-23T15:28:44.783Z,3.00
2019-03-23T15:31:14.637Z,2.73
2019-03-23T15:33:42.845Z,2.60
2019-03-23T15:36:11.057Z,2.93
2019-03-23T15:38:39.262Z,2.40
2019-03-23T15:41:07.466Z,2.87
2019-03-23T15:43:35.780Z,3.03
2019-03-23T15:46:03.983Z,3.57
2019-03-23T15:48:32.193Z,3.00
2019-03-23T15:51:00.414Z,2.67
2019-03-23T15:53:28.623Z,2.83
2019-03-23T15:55:56.839Z,2.10
2019-03-23T15:58:25.047Z,2.33
2019-03-23T16:00:53.307Z,2.73
2019-03-23T16:03:21.483Z,2.63
2019-03-23T16:05:49.692Z,3.23
2019-03-23T16:08:17.911Z,3.63
2019-03-23T16:10:46.115Z,3.13
2019-03-23T16:13:14.343Z,3.47
2019-03-23T16:15:42.619Z,3.77
2019-03-23T16:18:10.841Z,5.23
2019-03-23T16:20:39.055Z,6.10
2019-03-23T16:23:07.867Z,4.50
2019-03-23T16:25:36.058Z,5.70
2019-03-23T16:28:04.275Z,8.87
2019-03-23T16:30:32.645Z,5.67
2019-03-23T16:33:00.869Z,6.00
2019-03-23T16:35:29.070Z,4.23
2019-03-23T16:37:57.283Z,4.70
2019-03-23T16:40:25.484Z,5.37
2019-03-23T16:42:53.705Z,6.13
2019-03-23T16:45:21.908Z,4.77
2019-03-23T16:47:51.754Z,5.53
2019-03-23T16:50:19.952Z,3.97
2019-03-23T16:52:48.171Z,4.37
2019-03-23T16:55:16.373Z,3.30
2019-03-23T16:57:44.581Z,4.27
2019-03-23T17:00:14.623Z,4.90
2019-03-23T17:02:42.846Z,5.37
2019-03-23T17:05:11.046Z,5.63
2019-03-23T17:07:39.260Z,5.50
2019-03-23T17:10:07.469Z,4.00
2019-03-23T17:12:35.762Z,4.73
2019-03-23T17:15:06.964Z,3.53
2019-03-23T17:17:35.257Z,4.63
2019-03-23T17:20:03.532Z,4.43
2019-03-23T17:22:31.735Z,3.77
2019-03-23T17:24:59.957Z,4.17
2019-03-23T17:27:28.164Z,3.77
2019-03-23T17:29:56.388Z,3.50
2019-03-23T17:32:24.592Z,3.50
2019-03-23T17:34:52.814Z,3.60
2019-03-23T17:37:21.011Z,4.63
2019-03-23T17:39:49.232Z,5.20
2019-03-23T17:42:17.442Z,5.07
2019-03-23T17:44:46.287Z,5.57
2019-03-23T17:47:14.435Z,4.67
2019-03-23T17:49:42.651Z,4.23
2019-03-23T17:52:10.852Z,4.07
2019-03-23T17:54:39.063Z,3.90
2019-03-23T17:57:07.583Z,3.87
2019-03-23T17:59:35.810Z,3.80
2019-03-23T18:02:05.635Z,3.70
2019-03-23T18:04:33.838Z,3.93
2019-03-23T18:07:02.052Z,4.23
2019-03-23T18:09:30.250Z,4.03
2019-03-23T18:11:58.472Z,4.17
2019-03-23T18:14:26.672Z,3.33
2019-03-23T18:16:54.889Z,3.50
2019-03-23T18:19:23.088Z,3.57
2019-03-23T18:21:51.302Z,4.00
2019-03-23T18:24:19.505Z,3.90
2019-03-23T18:26:47.720Z,5.70
2019-03-23T18:29:15.929Z,3.93
2019-03-23T18:31:44.154Z,4.50
2019-03-23T18:34:12.359Z,4.33
2019-03-23T18:36:40.575Z,3.93
2019-03-23T18:39:10.254Z,4.23
2019-03-23T18:41:38.479Z,3.80
2019-03-23T18:44:15.791Z,3.47
2019-03-23T18:46:36.627Z,4.10
2019-03-23T18:49:04.831Z,4.00
2019-03-23T18:51:33.054Z,4.80
2019-03-23T18:54:01.262Z,5.17
2019-03-23T18:56:29.483Z,5.17
2019-03-23T18:58:57.685Z,4.87
2019-03-23T19:01:27.379Z,5.23
2019-03-23T19:03:55.582Z,7.53
2019-03-23T19:06:23.781Z,5.73
2019-03-23T19:08:52.004Z,7.03
2019-03-23T19:11:20.201Z,5.20
2019-03-23T19:13:48.422Z,6.90
2019-03-23T19:16:16.615Z,5.80
2019-03-23T19:18:44.839Z,5.40
2019-03-23T19:21:13.039Z,5.53
2019-03-23T19:23:41.265Z,5.37
2019-03-23T19:26:09.474Z,5.83
2019-03-23T19:28:37.674Z,4.80
2019-03-23T19:31:05.895Z,5.07
2019-03-23T19:33:34.108Z,5.10
2019-03-23T19:36:02.332Z,5.33
2019-03-23T19:38:30.532Z,5.53
2019-03-23T19:40:58.754Z,5.43
2019-03-23T19:43:26.959Z,7.07
2019-03-23T19:45:55.162Z,7.40
2019-03-23T19:48:24.857Z,9.80
2019-03-23T19:50:53.053Z,11.43
2019-03-23T19:53:21.278Z,12.20
2019-03-23T19:55:49.489Z,13.80
2019-03-23T19:58:17.709Z,9.70
2019-03-23T20:00:45.999Z,8.83
2019-03-23T20:03:14.220Z,6.33
2019-03-23T20:05:42.423Z,6.77
2019-03-23T20:08:11.464Z,6.63
2019-03-23T20:10:39.673Z,5.93
2019-03-23T20:13:07.883Z,7.27
2019-03-23T20:15:36.109Z,6.43
2019-03-23T20:18:04.583Z,6.57
2019-03-23T20:20:32.818Z,7.23
2019-03-23T20:23:01.013Z,6.93
2019-03-23T20:25:29.243Z,7.63
2019-03-23T20:27:57.451Z,11.47
2019-03-23T20:30:25.666Z,11.83
2019-03-23T20:32:53.879Z,10.33
2019-03-23T20:35:22.090Z,7.97
2019-03-23T20:37:50.301Z,8.13
2019-03-23T20:40:18.514Z,6.27
2019-03-23T20:42:46.743Z,6.30
2019-03-23T20:45:18.207Z,5.87
2019-03-23T20:47:46.407Z,6.27
2019-03-23T20:50:14.625Z,6.53
2019-03-23T20:52:45.235Z,7.70
2019-03-23T20:55:24.399Z,7.07
2019-03-23T20:57:53.234Z,7.77
2019-03-23T21:00:21.450Z,6.70
2019-03-23T21:02:49.915Z,6.77
2019-03-23T21:05:18.138Z,6.30
2019-03-23T21:07:46.326Z,6.27
2019-03-23T21:10:14.526Z,6.70
2019-03-23T21:12:42.731Z,7.67
2019-03-23T21:15:10.930Z,6.10
2019-03-23T21:17:50.678Z,6.17
2019-03-23T21:20:09.074Z,6.53
2019-03-23T21:22:37.968Z,6.47
2019-03-23T21:25:07.787Z,7.27
2019-03-23T21:27:35.989Z,7.20
2019-03-23T21:30:07.256Z,6.93
2019-03-23T21:32:35.594Z,6.53
2019-03-23T21:35:04.539Z,6.73
2019-03-23T21:37:32.747Z,7.63
2019-03-23T21:40:00.957Z,7.87
2019-03-23T21:42:29.171Z,7.70
2019-03-23T21:44:57.366Z,9.40
2019-03-23T21:47:25.591Z,10.27
2019-03-23T21:49:53.801Z,10.93
2019-03-23T21:52:22.005Z,10.73
2019-03-23T21:54:50.235Z,11.13
2019-03-23T21:57:18.458Z,11.73
2019-03-23T21:59:46.683Z,11.70
2019-03-23T22:02:14.902Z,12.23
2019-03-23T22:04:43.382Z,12.53
2019-03-23T22:07:11.591Z,15.20
2019-03-23T22:09:39.810Z,14.37
2019-03-23T22:12:08.020Z,16.10
2019-03-23T22:14:41.505Z,15.40
2019-03-23T22:17:06.197Z,15.50
2019-03-23T22:19:34.401Z,15.73
2019-03-23T22:22:02.660Z,16.40
2019-03-23T22:24:30.876Z,16.33
2019-03-23T22:26:59.101Z,17.73
2019-03-23T22:29:27.307Z,17.07
2019-03-23T22:31:55.531Z,16.07
2019-03-23T22:34:23.742Z,14.57
2019-03-23T22:36:52.985Z,16.10
2019-03-23T22:39:21.211Z,14.63
2019-03-23T22:41:49.425Z,14.67
2019-03-23T22:44:17.633Z,14.47
2019-03-23T22:46:45.841Z,13.30
2019-03-23T22:49:14.059Z,14.10
2019-03-23T22:51:42.271Z,11.93
2019-03-23T22:54:10.485Z,14.63
2019-03-23T22:56:38.947Z,11.67
2019-03-23T22:59:07.169Z,12.47
2019-03-23T23:01:37.003Z,12.60
2019-03-23T23:04:05.230Z,13.43
2019-03-23T23:06:33.433Z,12.47
2019-03-23T23:09:01.666Z,11.90
2019-03-23T23:11:29.875Z,12.73
2019-03-23T23:13:59.387Z,12.07
2019-03-23T23:16:27.611Z,12.47
2019-03-23T23:18:55.819Z,12.70
2019-03-23T23:21:25.644Z,12.10
2019-03-23T23:23:53.928Z,12.50
2019-03-23T23:26:22.158Z,12.57
2019-03-23T23:28:50.441Z,12.40
2019-03-23T23:31:18.663Z,12.20
2019-03-23T23:33:47.192Z,12.17
2019-03-23T23:36:15.687Z,12.43
2019-03-23T23:38:44.150Z,12.57
2019-03-23T23:41:12.639Z,12.23
2019-03-23T23:43:41.260Z,12.20
2019-03-23T23:46:09.903Z,13.10
2019-03-23T23:48:38.091Z,13.87
2019-03-23T23:51:06.550Z,13.40
2019-03-23T23:53:34.841Z,12.77
2019-03-23T23:56:03.046Z,14.93
2019-03-23T23:58:31.502Z,14.47
